Time;durP1;ratioP1;P1;durP2;ratioP2;P2;SDS_P1;SDS_P2;PMS_P1;PMS_P2;Temp;Humidity;BMP_temperature;BMP_pressure;BME280_temperature;BME280_humidity;BME280_pressure;Samples;Min_cycle;Max_cycle;Signal;HPM_P1;HPM_P2
2022/09/05 00:02:59;;;;;;;3.38;2.85;;;;;;;16.93;79.86;101155.03;6013340;29;20564;-87
2022/09/05 00:06:14;;;;;;;4.95;3.08;;;;;;;16.89;80.54;101151.06;6022097;29;20512;-87
2022/09/05 00:09:24;;;;;;;4.25;2.97;;;;;;;16.86;80.75;101150.56;6009620;29;20157;-87
2022/09/05 00:12:32;;;;;;;4.57;2.97;;;;;;;16.83;80.84;101159.50;6057560;29;20063;-87
2022/09/05 00:15:34;;;;;;;3.90;2.90;;;;;;;16.79;81.82;101152.91;6097102;29;20091;-87
2022/09/05 00:18:45;;;;;;;3.13;2.67;;;;;;;16.75;81.46;101146.31;6111868;29;20506;-87
2022/09/05 00:22:35;;;;;;;3.42;2.60;;;;;;;16.72;81.54;101154.44;6126355;29;20040;-88
2022/09/05 00:26:02;;;;;;;3.92;2.80;;;;;;;16.67;81.74;101147.06;6119707;29;20385;-87
2022/09/05 00:29:31;;;;;;;3.85;2.80;;;;;;;16.64;81.67;101146.50;6125607;29;20523;-87
2022/09/05 00:33:23;;;;;;;4.38;3.00;;;;;;;16.58;82.50;101148.75;6120319;29;20044;-87
2022/09/05 00:36:53;;;;;;;3.53;2.90;;;;;;;16.56;81.86;101149.84;6117204;29;20051;-88
2022/09/05 00:40:27;;;;;;;2.70;2.45;;;;;;;16.52;82.29;101151.94;6110168;29;20048;-87
2022/09/05 00:43:35;;;;;;;4.10;2.80;;;;;;;16.49;82.73;101154.81;6091415;29;20052;-87
2022/09/05 00:46:46;;;;;;;5.05;2.70;;;;;;;16.47;82.73;101148.94;6108066;29;20062;-87
2022/09/05 00:50:00;;;;;;;5.00;3.03;;;;;;;16.47;82.56;101153.31;6108553;28;20178;-87
2022/09/05 00:53:18;;;;;;;3.15;2.85;;;;;;;16.44;82.13;101149.22;6122435;29;20052;-87
2022/09/05 00:56:49;;;;;;;3.97;2.47;;;;;;;16.44;81.68;101157.03;6118977;28;20227;-87
2022/09/05 01:00:21;;;;;;;3.28;2.97;;;;;;;16.46;80.84;101155.13;6106448;29;20050;-87
2022/09/05 01:03:33;;;;;;;3.78;2.53;;;;;;;16.44;82.34;101162.28;6108755;29;20055;-87
2022/09/05 01:06:46;;;;;;;3.53;3.17;;;;;;;16.42;82.94;101168.59;6117988;29;20044;-87
2022/09/05 01:10:11;;;;;;;3.58;2.67;;;;;;;16.39;83.67;101161.88;6117093;28;20043;-87
2022/09/05 01:13:52;;;;;;;3.75;2.70;;;;;;;16.35;83.85;101168.38;6115875;29;20051;-87
2022/09/05 01:17:24;;;;;;;4.43;2.70;;;;;;;16.34;83.83;101166.72;6117344;29;20083;-87
2022/09/05 01:20:32;;;;;;;2.58;2.38;;;;;;;16.33;83.24;101168.50;6123387;29;20496;-87
2022/09/05 01:23:51;;;;;;;3.85;2.67;;;;;;;16.30;83.88;101163.56;6116781;29;20094;-87
2022/09/05 01:26:58;;;;;;;3.17;2.70;;;;;;;16.28;84.20;101162.06;6118491;29;20151;-87
2022/09/05 01:30:33;;;;;;;4.45;2.60;;;;;;;16.26;83.94;101153.56;6112288;29;20064;-87
2022/09/05 01:34:12;;;;;;;3.88;2.90;;;;;;;16.22;84.04;101154.78;6022889;29;20062;-87
2022/09/05 01:37:40;;;;;;;3.05;2.75;;;;;;;16.19;84.37;101152.47;6029981;29;20520;-87
2022/09/05 01:41:16;;;;;;;2.78;2.58;;;;;;;16.16;84.27;101153.56;6016952;29;20049;-87
2022/09/05 01:44:36;;;;;;;4.65;2.45;;;;;;;16.12;85.23;101155.66;6029106;29;20068;-87
2022/09/05 01:48:00;;;;;;;3.33;2.95;;;;;;;16.09;85.46;101152.50;6029164;29;20059;-87
2022/09/05 01:51:38;;;;;;;3.22;2.40;;;;;;;16.05;85.56;101154.59;6024729;29;20088;-87
2022/09/05 01:55:15;;;;;;;2.88;2.67;;;;;;;16.05;83.67;101151.97;5955357;29;20062;-87
2022/09/05 01:58:35;;;;;;;2.92;2.72;;;;;;;16.04;85.03;101158.13;5957519;29;20597;-87
2022/09/05 02:02:11;;;;;;;3.25;2.95;;;;;;;16.05;83.45;101151.97;5952921;29;20138;-87
2022/09/05 02:05:26;;;;;;;3.97;2.75;;;;;;;16.01;84.72;101152.38;5940089;29;20140;-87
2022/09/05 02:09:06;;;;;;;3.22;2.60;;;;;;;15.97;86.06;101164.88;5954113;29;20069;-87
2022/09/05 02:12:13;;;;;;;3.00;2.70;;;;;;;15.93;86.24;101166.97;6055712;29;20140;-87
2022/09/05 02:15:19;;;;;;;4.22;2.67;;;;;;;15.89;85.46;101151.72;6093574;29;20195;-87
2022/09/05 02:18:26;;;;;;;4.18;2.70;;;;;;;15.85;86.19;101161.63;6109486;29;20102;-87
2022/09/05 02:21:36;;;;;;;6.05;2.75;;;;;;;15.84;85.79;101162.56;6122396;28;20039;-88
2022/09/05 02:25:08;;;;;;;3.95;2.50;;;;;;;15.80;86.42;101158.63;6111976;29;20082;-87
2022/09/05 02:28:51;;;;;;;2.92;2.72;;;;;;;15.77;86.66;101158.88;6124638;29;20043;-87
2022/09/05 02:32:11;;;;;;;3.95;3.13;;;;;;;15.73;87.08;101154.09;6101093;29;20083;-87
2022/09/05 02:35:30;;;;;;;3.20;2.80;;;;;;;15.69;87.29;101149.13;6102787;28;20046;-87
2022/09/05 02:38:44;;;;;;;3.28;2.97;;;;;;;15.67;87.03;101153.63;6116184;29;20544;-87
2022/09/05 02:42:11;;;;;;;3.35;2.92;;;;;;;15.65;87.20;101149.50;6122318;28;20154;-87
2022/09/05 02:46:04;;;;;;;2.85;2.55;;;;;;;15.62;87.60;101148.00;6111516;29;20043;-87
2022/09/05 02:49:39;;;;;;;4.38;2.55;;;;;;;15.59;87.79;101145.69;6117363;29;20051;-87
2022/09/05 02:53:03;;;;;;;3.40;3.00;;;;;;;15.55;88.10;101141.69;6113639;29;20039;-87
2022/09/05 02:56:30;;;;;;;3.47;2.88;;;;;;;15.52;88.13;101139.38;6124270;28;20094;-87
2022/09/05 03:00:15;;;;;;;2.88;2.58;;;;;;;15.49;87.97;101142.25;6111073;29;20043;-87
2022/09/05 03:03:36;;;;;;;3.70;2.75;;;;;;;15.45;88.77;101135.66;6116440;29;20048;-87
2022/09/05 03:06:47;;;;;;;2.92;2.33;;;;;;;15.42;89.44;101138.53;6105693;29;20425;-87
2022/09/05 03:10:20;;;;;;;3.53;3.07;;;;;;;15.38;89.20;101135.41;6115990;28;20050;-87
2022/09/05 03:14:19;;;;;;;3.17;2.70;;;;;;;15.35;89.29;101135.66;6099507;29;20044;-87
2022/09/05 03:18:00;;;;;;;3.45;2.45;;;;;;;15.34;89.54;101141.03;6090784;29;20593;-87
2022/09/05 03:21:59;;;;;;;4.18;2.63;;;;;;;15.32;89.50;101129.91;6105947;29;20043;-87
2022/09/05 03:25:33;;;;;;;3.67;3.17;;;;;;;15.29;88.91;101134.44;6113344;29;20048;-87
2022/09/05 03:29:01;;;;;;;5.32;3.08;;;;;;;15.31;88.97;101131.69;6039341;29;20065;-87
2022/09/05 03:32:21;;;;;;;3.05;2.72;;;;;;;15.37;88.45;101132.91;6042218;29;20067;-88
2022/09/05 03:35:54;;;;;;;4.43;3.05;;;;;;;15.44;88.94;101134.84;6039263;29;20049;-89
2022/09/05 03:39:33;;;;;;;5.00;2.80;;;;;;;15.52;88.51;101136.75;6036966;29;20071;-88
2022/09/05 03:43:01;;;;;;;4.90;2.95;;;;;;;15.60;88.24;101139.50;6038643;29;20084;-87
2022/09/05 03:46:15;;;;;;;3.35;2.80;;;;;;;15.67;87.47;101137.16;6039381;29;20075;-87
2022/09/05 03:49:44;;;;;;;3.20;2.90;;;;;;;15.70;86.76;101139.50;6038325;29;20203;-87
2022/09/05 03:53:33;;;;;;;3.15;2.78;;;;;;;15.74;87.77;101151.31;6056132;29;20056;-88
2022/09/05 03:57:32;;;;;;;3.72;2.88;;;;;;;15.77;87.59;101145.00;6050024;29;20235;-87
2022/09/05 04:01:05;;;;;;;2.90;2.70;;;;;;;15.83;87.54;101152.28;6049536;29;20056;-87
2022/09/05 04:04:47;;;;;;;4.68;3.05;;;;;;;15.90;87.24;101148.97;6076023;29;20067;-87
2022/09/05 04:08:14;;;;;;;3.55;2.80;;;;;;;15.97;85.37;101148.41;6124493;29;20079;-87
2022/09/05 04:11:47;;;;;;;4.35;2.80;;;;;;;16.02;85.51;101154.03;6124162;29;20043;-87
2022/09/05 04:14:56;;;;;;;4.00;2.83;;;;;;;16.04;83.70;101150.31;6117809;29;20177;-87
2022/09/05 04:18:16;;;;;;;3.47;2.70;;;;;;;16.03;84.64;101153.91;6117965;29;20164;-87
2022/09/05 04:21:31;;;;;;;4.03;3.35;;;;;;;15.99;85.92;101160.34;6113027;29;20367;-87
2022/09/05 04:24:41;;;;;;;5.40;3.38;;;;;;;15.96;85.40;101168.47;6125803;29;20079;-87
2022/09/05 04:28:01;;;;;;;4.38;2.75;;;;;;;15.93;85.96;101155.72;6121553;29;20050;-88
2022/09/05 04:31:13;;;;;;;;;;;;;;;15.90;85.67;101159.44;6122064;28;20040;-87
2022/09/05 04:34:32;;;;;;;3.45;3.05;;;;;;;15.87;85.80;101158.88;6117638;29;19926;-88
2022/09/05 04:37:40;;;;;;;4.50;2.97;;;;;;;15.86;86.21;101165.88;6133420;29;20303;-87
2022/09/05 04:41:02;;;;;;;3.80;3.10;;;;;;;15.84;85.88;101164.38;6099755;29;20060;-87
2022/09/05 04:44:15;;;;;;;3.45;3.15;;;;;;;15.83;85.31;101170.56;6117724;29;20039;-87
2022/09/05 04:47:40;;;;;;;3.95;3.00;;;;;;;15.79;85.68;101166.56;6115054;29;20258;-87
2022/09/05 04:51:33;;;;;;;3.42;3.13;;;;;;;15.76;86.91;101172.09;6100171;29;20087;-87
2022/09/05 04:54:48;;;;;;;4.00;3.10;;;;;;;15.74;86.16;101177.44;6034441;29;20090;-87
2022/09/05 04:58:09;;;;;;;4.97;3.35;;;;;;;15.72;86.70;101184.56;6021744;29;20121;-87
2022/09/05 05:01:20;;;;;;;4.50;3.28;;;;;;;15.74;87.26;101187.06;6021757;29;20583;-87
2022/09/05 05:04:42;;;;;;;3.38;2.95;;;;;;;15.73;87.21;101188.84;6037293;29;20061;-87
2022/09/05 05:08:25;;;;;;;3.53;3.22;;;;;;;15.75;86.46;101193.91;6028056;29;20082;-88
2022/09/05 05:12:01;;;;;;;3.88;2.88;;;;;;;15.75;86.63;101191.31;6011282;29;20161;-87
2022/09/05 05:15:26;;;;;;;3.58;3.10;;;;;;;15.74;87.32;101189.66;6025644;29;20056;-87
2022/09/05 05:18:54;;;;;;;4.55;3.28;;;;;;;15.75;87.53;101191.31;6020217;29;20452;-88
2022/09/05 05:22:12;;;;;;;4.43;3.20;;;;;;;15.81;86.30;101202.03;6021912;29;20139;-87
2022/09/05 05:25:14;;;;;;;4.90;2.97;;;;;;;15.84;86.58;101206.13;6032818;29;20057;-87
2022/09/05 05:28:26;;;;;;;4.05;3.38;;;;;;;15.89;87.31;101199.53;6034456;29;20136;-87
2022/09/05 05:31:32;;;;;;;4.40;3.30;;;;;;;15.97;87.18;101201.44;6115923;29;20047;-87
2022/09/05 05:34:42;;;;;;;6.30;3.78;;;;;;;16.08;86.02;101203.09;6118100;29;20047;-87
2022/09/05 05:37:56;;;;;;;4.93;3.50;;;;;;;16.19;86.28;101210.75;6120899;29;20138;-87
2022/09/05 05:41:32;;;;;;;5.10;3.58;;;;;;;16.39;85.12;101210.72;6122316;29;20241;-87
2022/09/05 05:44:37;;;;;;;6.55;3.28;;;;;;;16.54;84.33;101211.91;6118382;29;20097;-88
2022/09/05 05:47:52;;;;;;;5.25;3.67;;;;;;;16.70;81.96;101214.72;6115819;29;20083;-87
2022/09/05 05:51:02;;;;;;;4.43;3.70;;;;;;;16.74;82.44;101220.47;6119185;29;20039;-87
2022/09/05 05:54:24;;;;;;;6.72;3.63;;;;;;;16.77;83.54;101215.81;6126091;29;20494;-87
2022/09/05 05:57:53;;;;;;;5.20;3.70;;;;;;;16.85;83.12;101214.28;6107581;29;20286;-87
2022/09/05 06:01:25;;;;;;;4.30;3.50;;;;;;;16.91;81.85;101217.13;6099856;29;20051;-87
2022/09/05 06:04:58;;;;;;;3.97;3.40;;;;;;;16.92;82.66;101213.56;6127132;29;20653;-87
2022/09/05 06:08:41;;;;;;;6.22;3.85;;;;;;;16.98;81.79;101222.59;6109702;29;20043;-87
2022/09/05 06:12:24;;;;;;;6.05;4.60;;;;;;;17.03;81.29;101220.38;6115862;29;20039;-87
2022/09/05 06:16:05;;;;;;;5.03;4.07;;;;;;;17.07;81.73;101211.28;6109735;29;20054;-88
2022/09/05 06:19:15;;;;;;;4.10;3.42;;;;;;;17.13;81.17;101209.84;6107900;29;20062;-87
2022/09/05 06:22:39;;;;;;;7.57;4.20;;;;;;;17.19;81.15;101214.50;6118802;29;20055;-87
2022/09/05 06:26:04;;;;;;;4.38;3.70;;;;;;;17.25;80.75;101213.09;6113962;29;20481;-87
2022/09/05 06:29:32;;;;;;;4.40;4.00;;;;;;;17.33;80.99;101218.41;6120985;29;20084;-88
2022/09/05 06:33:03;;;;;;;4.70;4.20;;;;;;;17.44;81.15;101218.19;6118111;29;20048;-87
2022/09/05 06:36:36;;;;;;;7.18;3.95;;;;;;;17.60;80.43;101220.97;6127122;28;20450;-88
2022/09/05 06:40:06;;;;;;;5.82;4.30;;;;;;;17.86;79.88;101223.69;6121110;28;20054;-87
2022/09/05 06:43:47;;;;;;;5.93;3.92;;;;;;;18.05;79.15;101225.28;6100229;29;20090;-88
2022/09/05 06:46:54;;;;;;;4.75;4.13;;;;;;;18.24;78.32;101229.50;6116336;29;20376;-87
2022/09/05 06:50:19;;;;;;;4.55;3.78;;;;;;;18.35;78.74;101238.91;6119436;29;20047;-88
2022/09/05 06:53:51;;;;;;;6.63;4.30;;;;;;;18.42;78.12;101224.19;6133472;29;20063;-87
2022/09/05 06:57:23;;;;;;;6.75;4.10;;;;;;;18.48;78.16;101230.63;6121413;29;20036;-87
2022/09/05 07:00:43;;;;;;;7.63;3.83;;;;;;;18.56;78.32;101238.53;6116892;29;20047;-87
2022/09/05 07:04:08;;;;;;;6.35;4.47;;;;;;;18.69;77.05;101238.94;6117275;29;20052;-87
2022/09/05 07:07:44;;;;;;;6.68;3.88;;;;;;;18.83;76.36;101239.34;6099139;29;20098;-88
2022/09/05 07:11:02;;;;;;;4.80;4.00;;;;;;;19.09;76.66;101253.22;6122337;29;20043;-88
2022/09/05 07:14:24;;;;;;;4.32;3.92;;;;;;;19.46;75.32;101244.13;6118931;29;20063;-88
2022/09/05 07:17:59;;;;;;;5.05;3.90;;;;;;;19.69;73.37;101254.84;6124559;29;20120;-88
2022/09/05 07:21:37;;;;;;;7.45;4.13;;;;;;;19.82;72.90;101246.47;6111083;29;20529;-88
2022/09/05 07:24:47;;;;;;;4.70;4.30;;;;;;;19.93;72.68;101251.41;6110408;29;20349;-87
2022/09/05 07:28:10;;;;;;;4.82;4.43;;;;;;;20.10;71.63;101249.59;6115376;29;20043;-88
2022/09/05 07:31:34;;;;;;;5.55;4.43;;;;;;;20.18;71.49;101239.06;6096767;29;20054;-88
2022/09/05 07:34:38;;;;;;;4.50;4.10;;;;;;;20.11;72.61;101250.41;6123139;28;20481;-88
2022/09/05 07:37:44;;;;;;;4.38;3.95;;;;;;;20.12;72.46;101257.31;6112302;29;20105;-88
2022/09/05 07:40:56;;;;;;;5.20;4.20;;;;;;;20.10;73.35;101260.13;6128121;29;20043;-88
2022/09/05 07:44:08;;;;;;;9.45;4.68;;;;;;;20.16;72.73;101258.63;6110796;29;20051;-88
2022/09/05 07:47:25;;;;;;;5.10;4.32;;;;;;;20.27;72.38;101260.91;6113786;29;20043;-88
2022/09/05 07:50:28;;;;;;;4.75;4.35;;;;;;;20.47;71.97;101268.44;6108497;29;20103;-88
2022/09/05 07:53:53;;;;;;;6.97;4.72;;;;;;;20.72;71.09;101262.16;6115283;29;20046;-88
2022/09/05 07:57:26;;;;;;;5.63;4.60;;;;;;;20.94;70.27;101265.03;6114828;29;20872;-88
2022/09/05 08:00:35;;;;;;;7.63;4.50;;;;;;;21.06;69.94;101264.47;6091072;29;20039;-87
2022/09/05 08:03:37;;;;;;;6.45;4.00;;;;;;;21.21;69.30;101266.38;6105234;29;20055;-88
2022/09/05 08:06:39;;;;;;;4.88;4.18;;;;;;;21.43;69.36;101265.63;6107191;29;20073;-88
2022/09/05 08:10:13;;;;;;;5.30;4.05;;;;;;;21.69;70.25;101261.84;6103121;29;20077;-88
2022/09/05 08:13:23;;;;;;;8.55;4.60;;;;;;;21.84;67.76;101267.16;6111868;29;20114;-88
2022/09/05 08:16:29;;;;;;;7.03;4.20;;;;;;;21.95;67.62;101264.09;6117613;29;20154;-88
2022/09/05 08:20:08;;;;;;;6.00;4.30;;;;;;;22.19;66.96;101263.06;6091771;29;20044;-88
2022/09/05 08:23:26;;;;;;;6.43;4.78;;;;;;;22.44;66.15;101263.66;6116296;29;20035;-88
2022/09/05 08:26:39;;;;;;;5.38;4.20;;;;;;;22.73;64.97;101262.84;6103264;29;20063;-88
2022/09/05 08:30:09;;;;;;;4.80;4.15;;;;;;;23.00;64.94;101264.03;6109401;28;20055;-88
2022/09/05 08:33:36;;;;;;;5.22;4.50;;;;;;;23.13;63.41;101262.53;6102863;29;20047;-89
2022/09/05 08:36:46;;;;;;;4.63;4.22;;;;;;;23.23;62.16;101257.78;6121636;29;20546;-90
2022/09/05 08:39:52;;;;;;;6.60;4.18;;;;;;;23.27;63.60;101252.94;6118954;29;20043;-90
2022/09/05 08:43:41;;;;;;;5.60;4.40;;;;;;;23.15;63.55;101249.94;6125577;29;20054;-89
2022/09/05 08:47:27;;;;;;;4.82;4.32;;;;;;;23.00;63.43;101242.06;6123708;29;20394;-89
2022/09/05 08:51:10;;;;;;;7.60;4.47;;;;;;;22.84;64.47;101242.25;6122934;28;20508;-90
2022/09/05 08:54:17;;;;;;;5.25;4.57;;;;;;;22.83;64.03;101240.59;6125918;29;20346;-89
2022/09/05 08:57:45;;;;;;;4.57;4.07;;;;;;;22.85;64.95;101236.78;6122965;28;20139;-90
2022/09/05 09:00:58;;;;;;;4.55;4.15;;;;;;;22.87;64.90;101236.59;6117983;29;20235;-90
2022/09/05 09:04:55;;;;;;;6.85;4.65;;;;;;;22.89;64.62;101243.34;6114656;29;20219;-89
2022/09/05 09:08:16;;;;;;;5.50;4.35;;;;;;;22.93;65.20;101239.34;6107489;29;20056;-89
2022/09/05 09:11:50;;;;;;;5.30;4.82;;;;;;;22.97;65.31;101235.31;6120810;29;20677;-89
2022/09/05 09:15:14;;;;;;;4.88;4.22;;;;;;;22.97;64.95;101230.03;6110311;29;20036;-89
2022/09/05 09:18:18;;;;;;;4.78;4.30;;;;;;;22.92;64.78;101232.41;6122807;29;20038;-90
2022/09/05 09:22:02;;;;;;;5.15;4.65;;;;;;;22.81;65.40;101224.97;6119123;29;20189;-89
2022/09/05 09:25:09;;;;;;;7.90;4.80;;;;;;;22.78;65.27;101227.94;6114252;29;20549;-89
2022/09/05 09:28:48;;;;;;;5.55;4.75;;;;;;;22.61;65.79;101222.06;6117849;29;20048;-90
2022/09/05 09:32:09;;;;;;;5.30;4.50;;;;;;;22.55;66.79;101223.59;6119108;29;20134;-89
2022/09/05 09:35:33;;;;;;;6.22;4.30;;;;;;;22.43;66.93;101222.44;6105385;29;20063;-90
2022/09/05 09:39:09;;;;;;;4.97;4.10;;;;;;;22.45;66.45;101212.50;6115585;29;20413;-89
2022/09/05 09:42:49;;;;;;;5.80;4.60;;;;;;;22.56;66.06;101213.91;6134755;29;20043;-89
2022/09/05 09:46:26;;;;;;;6.97;4.90;;;;;;;22.70;65.88;101210.41;6122771;29;20051;-89
2022/09/05 09:50:07;;;;;;;5.18;4.65;;;;;;;23.21;65.29;101207.75;6110811;29;20044;-89
2022/09/05 09:53:16;;;;;;;4.60;4.20;;;;;;;23.61;63.97;101207.31;6047753;29;20073;-89
2022/09/05 09:56:20;;;;;;;5.72;4.35;;;;;;;23.80;63.12;101219.94;6035194;29;20049;-89
2022/09/05 09:59:36;;;;;;;4.90;4.50;;;;;;;23.93;62.61;101210.47;6025915;29;20567;-89
2022/09/05 10:03:14;;;;;;;4.90;4.43;;;;;;;24.34;61.99;101201.75;6036599;29;20451;-89
2022/09/05 10:06:59;;;;;;;6.22;4.63;;;;;;;24.60;60.83;101206.41;6041004;29;20481;-89
2022/09/05 10:10:39;;;;;;;5.95;4.60;;;;;;;24.80;60.37;101209.13;6044847;29;20065;-89
2022/09/05 10:14:01;;;;;;;;;;;;;;;24.99;59.76;101200.41;6048386;29;20504;-89
2022/09/05 10:17:31;;;;;;;5.53;4.13;;;;;;;25.15;58.96;101210.63;6043168;29;19927;-90
2022/09/05 10:20:54;;;;;;;5.68;4.65;;;;;;;25.46;58.36;101201.31;6045559;29;20535;-89
2022/09/05 10:24:31;;;;;;;6.15;4.30;;;;;;;25.82;57.25;101199.31;6041050;29;20056;-89
2022/09/05 10:27:55;;;;;;;5.53;4.28;;;;;;;26.17;56.03;101194.56;6042816;29;20060;-89
2022/09/05 10:31:12;;;;;;;4.55;4.15;;;;;;;26.52;54.39;101183.63;6116774;29;20052;-89
2022/09/05 10:35:13;;;;;;;4.18;3.85;;;;;;;26.91;53.79;101190.63;6130378;28;20051;-89
2022/09/05 10:38:43;;;;;;;4.67;4.23;;;;;;;26.89;52.49;101183.91;6064634;29;20076;-90
2022/09/05 10:41:52;;;;;;;5.63;4.13;;;;;;;26.63;53.93;101169.72;6057828;29;20045;-90
2022/09/05 10:44:55;;;;;;;6.57;3.53;;;;;;;26.42;54.81;101176.91;6064643;29;20053;-88
2022/09/05 10:47:57;;;;;;;5.20;4.10;;;;;;;26.21;55.53;101166.59;6066184;29;20107;-90
2022/09/05 10:51:19;;;;;;;5.22;4.25;;;;;;;26.04;54.92;101160.09;6060684;29;20788;-89
2022/09/05 10:54:47;;;;;;;5.38;4.75;;;;;;;25.85;56.25;101167.06;6064984;29;20511;-90
2022/09/05 10:58:20;;;;;;;4.85;4.00;;;;;;;25.86;56.14;101158.09;6063056;29;20055;-90
2022/09/05 11:02:16;;;;;;;4.78;4.32;;;;;;;25.86;56.03;101158.91;6065116;29;20057;-90
2022/09/05 11:05:51;;;;;;;4.55;4.10;;;;;;;25.87;55.11;101155.25;6062811;29;20571;-90
2022/09/05 11:09:05;;;;;;;7.00;4.40;;;;;;;25.86;55.93;101158.09;6055721;29;20056;-90
2022/09/05 11:12:47;;;;;;;6.35;4.47;;;;;;;25.94;55.83;101165.84;6066275;29;20401;-90
2022/09/05 11:16:43;;;;;;;5.97;4.10;;;;;;;26.08;56.55;101159.47;6107258;29;20507;-90
2022/09/05 11:20:00;;;;;;;6.03;4.40;;;;;;;26.19;54.92;101148.22;6114362;29;20596;-90
2022/09/05 11:23:12;;;;;;;5.35;4.30;;;;;;;26.22;54.33;101152.28;6106286;29;20162;-90
2022/09/05 11:26:33;;;;;;;8.15;4.50;;;;;;;26.27;54.31;101143.72;6114280;29;20569;-91
2022/09/05 11:29:47;;;;;;;4.40;4.00;;;;;;;26.35;54.06;101135.50;6111799;29;20082;-91
2022/09/05 11:33:26;;;;;;;5.22;4.05;;;;;;;26.47;53.16;101133.00;6113902;29;20055;-91
2022/09/05 11:36:54;;;;;;;5.55;4.15;;;;;;;26.51;54.00;101140.34;6108091;29;20616;-90
2022/09/05 11:40:16;;;;;;;5.15;4.25;;;;;;;26.61;53.59;101137.25;6113417;29;20126;-90
2022/09/05 11:44:21;;;;;;;4.32;4.00;;;;;;;26.71;52.67;101134.94;6114215;29;20051;-90
2022/09/05 11:47:58;;;;;;;7.57;4.18;;;;;;;26.82;52.49;101138.75;6112916;29;20554;-91
2022/09/05 11:51:19;;;;;;;5.43;3.42;;;;;;;26.94;51.79;101138.91;6111958;29;20285;-90
2022/09/05 11:54:53;;;;;;;4.22;3.72;;;;;;;27.00;51.89;101130.06;6110997;29;20122;-90
2022/09/05 11:58:45;;;;;;;4.63;4.10;;;;;;;27.09;50.51;101134.09;6107211;29;20063;-90
2022/09/05 12:02:20;;;;;;;6.57;4.13;;;;;;;27.13;50.84;101127.31;6104557;29;20047;-90
2022/09/05 12:05:58;;;;;;;9.20;3.72;;;;;;;27.26;51.02;101127.25;6111418;28;20058;-90
2022/09/05 12:09:22;;;;;;;5.50;3.90;;;;;;;27.35;52.12;101129.63;6112530;29;20131;-90
2022/09/05 12:12:38;;;;;;;4.43;4.03;;;;;;;27.49;50.92;101120.50;6109027;29;20051;-90
2022/09/05 12:15:45;;;;;;;4.38;3.83;;;;;;;27.62;49.77;101117.69;6104703;29;20048;-89
2022/09/05 12:20:02;;;;;;;7.55;4.07;;;;;;;27.79;49.29;101114.47;6097335;29;20118;-90
2022/09/05 12:23:25;;;;;;;4.47;4.03;;;;;;;28.00;49.07;101115.91;6042572;29;20044;-91
2022/09/05 12:27:04;;;;;;;4.43;4.03;;;;;;;28.20;49.49;101110.34;6045921;29;20476;-91
2022/09/05 12:30:28;;;;;;;5.47;3.65;;;;;;;28.45;49.54;101094.28;6044438;29;20375;-90
2022/09/05 12:33:50;;;;;;;4.55;3.55;;;;;;;28.74;48.59;101098.75;6049806;29;20462;-90
2022/09/05 12:37:12;;;;;;;4.00;3.65;;;;;;;29.04;47.75;101091.75;6050467;29;20479;-91
2022/09/05 12:40:39;;;;;;;4.40;4.00;;;;;;;29.18;47.20;101094.00;6051014;29;20231;-90
2022/09/05 12:44:00;;;;;;;5.40;4.03;;;;;;;29.23;46.18;101095.97;6052409;29;20088;-90
2022/09/05 12:47:28;;;;;;;6.47;3.83;;;;;;;29.32;47.65;101085.78;6050508;29;20063;-90
2022/09/05 12:50:48;;;;;;;5.60;3.80;;;;;;;29.44;45.88;101088.44;6044097;29;20060;-90
2022/09/05 12:53:56;;;;;;;5.97;4.05;;;;;;;29.53;46.13;101084.38;6100901;29;20067;-90
2022/09/05 12:57:06;;;;;;;8.38;4.43;;;;;;;29.71;45.68;101084.25;6138480;28;20344;-90
2022/09/05 13:00:42;;;;;;;8.80;4.47;;;;;;;29.90;44.84;101082.25;6115993;29;20047;-90
2022/09/05 13:04:20;;;;;;;8.00;5.43;;;;;;;30.02;44.65;101076.88;6118481;29;20622;-90
2022/09/05 13:07:41;;;;;;;8.90;4.10;;;;;;;30.04;44.90;101072.13;6120233;29;20046;-90
2022/09/05 13:10:44;;;;;;;5.90;4.13;;;;;;;30.02;45.04;101063.53;6117113;29;20146;-90
2022/09/05 13:14:16;;;;;;;6.68;3.95;;;;;;;29.88;44.93;101060.31;6128291;29;20039;-90
2022/09/05 13:17:57;;;;;;;5.32;3.92;;;;;;;29.98;44.69;101060.50;6122058;29;20036;-90
2022/09/05 13:21:07;;;;;;;9.90;4.03;;;;;;;30.09;44.36;101048.19;6116414;29;20039;-91
2022/09/05 13:24:13;;;;;;;4.05;3.65;;;;;;;30.17;43.79;101047.00;6116237;29;20044;-90
2022/09/05 13:27:30;;;;;;;7.88;3.95;;;;;;;30.35;43.63;101040.66;6115387;29;20047;-90
2022/09/05 13:30:37;;;;;;;6.25;4.40;;;;;;;30.48;43.40;101040.34;6117567;29;20059;-90
2022/09/05 13:34:02;;;;;;;4.18;3.78;;;;;;;30.64;43.06;101033.41;6115982;29;20055;-90
2022/09/05 13:38:12;;;;;;;4.60;3.67;;;;;;;30.84;41.96;101040.97;6101981;29;20075;-90
2022/09/05 13:41:42;;;;;;;5.20;4.10;;;;;;;30.95;42.87;101023.22;6052672;29;20049;-90
2022/09/05 13:44:48;;;;;;;4.97;3.80;;;;;;;31.02;42.74;101030.00;6052481;29;20055;-91
2022/09/05 13:48:14;;;;;;;4.75;3.42;;;;;;;31.13;42.35;101022.97;6036282;29;20052;-90
2022/09/05 13:51:26;;;;;;;4.97;3.70;;;;;;;31.29;41.04;101019.44;6052882;29;20053;-90
2022/09/05 13:54:51;;;;;;;4.78;3.72;;;;;;;31.31;41.47;101025.34;6062940;29;20056;-91
2022/09/05 13:57:59;;;;;;;5.88;3.92;;;;;;;31.39;41.32;101018.78;6061155;29;20052;-91
2022/09/05 14:01:18;;;;;;;6.95;3.28;;;;;;;31.47;41.06;101009.50;6047499;29;20052;-90
2022/09/05 14:04:49;;;;;;;3.88;3.47;;;;;;;31.56;41.23;101002.69;6047576;29;20221;-91
2022/09/05 14:08:33;;;;;;;3.75;3.40;;;;;;;31.25;41.60;101010.25;6052962;29;20045;-90
2022/09/05 14:11:41;;;;;;;4.85;3.45;;;;;;;31.24;41.96;101005.19;6084424;29;20047;-90
2022/09/05 14:15:14;;;;;;;5.32;3.40;;;;;;;31.37;41.60;101004.00;6118849;29;20046;-90
2022/09/05 14:21:14;;;;;;;7.53;3.63;;;;;;;31.46;41.50;101003.34;6096100;29;20130;-90
2022/09/05 14:21:55;;;;;;;6.05;3.38;;;;;;;31.73;41.22;101000.72;6108727;29;20058;-90
2022/09/05 14:24:59;;;;;;;4.70;3.38;;;;;;;31.87;39.93;101003.81;6108928;29;20043;-91
2022/09/05 14:28:04;;;;;;;11.55;3.60;;;;;;;31.97;40.25;100997.78;6098482;29;20048;-92
2022/09/05 14:31:16;;;;;;;4.47;3.78;;;;;;;32.22;39.44;100997.22;6095693;29;20048;-91
2022/09/05 14:34:52;;;;;;;7.13;3.88;;;;;;;31.76;40.03;100994.88;6111907;29;20551;-91
2022/09/05 14:38:54;;;;;;;4.85;3.30;;;;;;;31.21;41.31;100987.75;6103125;29;20098;-91
2022/09/05 14:42:30;;;;;;;3.42;2.97;;;;;;;31.30;40.56;100991.63;6107470;29;20040;-91
2022/09/05 14:45:54;;;;;;;4.22;3.50;;;;;;;30.92;41.80;100994.31;6106351;29;20070;-90
2022/09/05 14:49:39;;;;;;;4.97;3.78;;;;;;;30.89;42.00;100999.09;6109286;29;20050;-91
2022/09/05 14:53:28;;;;;;;6.93;3.60;;;;;;;31.64;40.39;100990.72;6108016;29;20048;-91
2022/09/05 14:57:04;;;;;;;3.60;3.30;;;;;;;32.29;40.81;100983.63;6061436;29;20052;-91
2022/09/05 15:00:43;;;;;;;5.93;3.80;;;;;;;32.77;39.52;100987.22;6050723;29;20567;-90
2022/09/05 15:04:05;;;;;;;;;;;;;;;32.78;38.84;100989.66;6062344;29;20132;-90
2022/09/05 15:07:32;;;;;;;4.45;3.95;;;;;;;32.07;39.99;100978.31;6048830;29;19934;-90
2022/09/05 15:10:44;;;;;;;6.10;3.78;;;;;;;31.70;39.99;100987.03;6054686;29;20485;-91
2022/09/05 15:14:10;;;;;;;4.32;3.50;;;;;;;31.57;40.68;100977.50;6063337;29;20365;-91
2022/09/05 15:17:21;;;;;;;6.88;3.92;;;;;;;32.21;39.29;100971.50;6047446;29;20057;-94
2022/09/05 15:20:45;;;;;;;4.00;3.30;;;;;;;32.55;38.61;100976.63;6063141;29;20063;-93
2022/09/05 15:24:19;;;;;;;3.60;3.30;;;;;;;32.70;38.73;100979.41;6060118;29;20479;-93
2022/09/05 15:27:27;;;;;;;5.80;3.63;;;;;;;32.93;38.22;100978.22;6061508;29;20056;-94
2022/09/05 15:30:33;;;;;;;5.82;3.10;;;;;;;33.03;37.41;100977.50;6064009;29;20189;-94
2022/09/05 15:33:42;;;;;;;5.57;3.70;;;;;;;32.66;37.80;100977.50;6088557;29;20048;-94
2022/09/05 15:36:45;;;;;;;5.05;3.22;;;;;;;31.95;38.95;100979.31;6110730;29;20122;-93
2022/09/05 15:39:46;;;;;;;4.50;3.40;;;;;;;31.12;41.33;100974.00;6096816;29;20625;-94
2022/09/05 15:42:51;;;;;;;6.60;3.83;;;;;;;30.54;43.00;100964.59;6114381;29;20036;-93
2022/09/05 15:46:05;;;;;;;6.47;3.67;;;;;;;30.08;43.16;100966.44;6109406;29;20434;-93
2022/09/05 15:49:44;;;;;;;4.82;3.70;;;;;;;29.57;44.47;100963.63;6104319;29;20051;-93
2022/09/05 15:52:50;;;;;;;3.78;3.30;;;;;;;29.20;44.32;100958.59;6085681;29;20539;-93
2022/09/05 15:56:08;;;;;;;4.05;3.63;;;;;;;28.91;45.11;100957.66;6111446;29;20047;-93